Ship Status Report: callsign AMOUK29

sailwx.info

Track history (hours):
 
Tides and Currents Weather Stations Pressure Air Temp Water Temp Dewpoint Dewpoint Depression Visibility Wind Speed Wind Dir Waves Ship Positions

Callsign AMOUK29 (name unknown)

Last reported at 2015-Apr-28 00:00 UTC. Time now 2015-Apr-28 02:06 UTC.
Position N 51°48' W 008°18'.

Barometer 1017.7 mb
Air temperature 4.0 ° C
Dewpoint 0.4 ° C

Date/timePositionNaut miles runAvg speedWind from/ knotsBaromVisibWave heightAir tempDewpointWater temp
2015-Apr-28 00:00N 51°48' W 008°18'0 0.0 1017.7 4.0 0.4
2015-Apr-27 21:00N 51°48' W 008°18'0 0.0 1016.6 4.8 0.1
2015-Apr-27 17:00N 51°48' W 008°18'0 0.0 1014.2 9.0-3.5
2015-Apr-27 14:00N 51°48' W 008°18'0 0.0 1013.8 7.4 2.6
2015-Apr-27 12:00N 51°48' W 008°18'0 0.0 1013.8 7.7 2.1
2015-Apr-27 10:00N 51°48' W 008°18'0 0.0 1014.0 9.2 0.1
2015-Apr-27 07:00N 51°48' W 008°18'0 0.0 1014.7 4.7 0.6
2015-Apr-27 03:00N 51°48' W 008°18'0 0.0 1014.8 3.8-0.1
2015-Apr-26 22:00N 51°48' W 008°18'0 0.0 1015.2 6.4 1.3
2015-Apr-26 20:00N 51°48' W 008°18'0 0.0 1014.3 8.6-0.1
2015-Apr-26 14:00N 51°48' W 008°18'0 0.0 1013.5 12.1-4.9
2015-Apr-26 12:00N 51°48' W 008°18'0 0.0 1013.9 10.6-2.2
2015-Apr-26 09:00N 51°48' W 008°18'0 0.0 1013.9 8.1-1.2
2015-Apr-26 02:00N 51°48' W 008°18'   1011.6 5.3 1.8
2015-Apr-19 16:00N 54°42' W 005°48'7 1.2 1028.0 9.6 4.1
2015-Apr-19 10:00N 54°36' W 005°54'0 0.0 1030.2 8.9 1.3
2015-Apr-19 06:00N 54°36' W 005°54'0 0.0 1030.3 6.3 3.4
2015-Apr-19 05:00N 54°36' W 005°54'0 0.0 1030.3 7.4 3.7
2015-Apr-19 03:00N 54°36' W 005°54'0 0.0 1030.3 7.5 3.8
2015-Apr-18 23:00N 54°36' W 005°54'0 0.0 1031.1 8.7 3.1
2015-Apr-18 21:00N 54°36' W 005°54'0 0.0 1030.9 9.2 4.1
2015-Apr-18 18:00N 54°36' W 005°54'0 0.0 1030.7 10.2 4.2
2015-Apr-18 17:00N 54°36' W 005°54'0 0.0 1030.9 11.6 4.7
2015-Apr-18 16:00N 54°36' W 005°54'0 0.0 1031.1 11.3 2.7
2015-Apr-18 15:00N 54°36' W 005°54'0 0.0 1031.5 9.9 2.5
2015-Apr-18 14:00N 54°36' W 005°54'0 0.0 1031.9 11.3-0.4
2015-Apr-18 12:00N 54°36' W 005°54'0 0.0 1032.3 10.5 0.3
2015-Apr-18 10:00N 54°36' W 005°54'0 0.0 1032.1 9.1 2.8
2015-Apr-18 09:00N 54°36' W 005°54'0 0.0 1032.2 9.1 3.4
2015-Apr-18 06:00N 54°36' W 005°54'0 0.0 1031.7 6.9 4.1
2015-Apr-18 05:00N 54°36' W 005°54'0 0.0 1031.3 6.7 4.1
2015-Apr-18 04:00N 54°36' W 005°54'0 0.0 1031.3 7.0 4.3
2015-Apr-18 02:00N 54°36' W 005°54'0 0.0 1030.8 8.1 3.1
2015-Apr-18 01:00N 54°36' W 005°54'   1030.2 8.6 4.1
Track history (hours):
 
Tides and Currents Weather Stations Pressure Air Temp Water Temp Dewpoint Dewpoint Depression Visibility Wind Speed Wind Dir Waves Ship Positions

Callsign AMOUK29 (name unknown)

Last reported at 2015-Apr-28 00:00 UTC. Time now 2015-Apr-28 02:06 UTC.
Position N 51°48' W 008°18'.

Barometer 1017.7 mb
Air temperature 4.0 ° C
Dewpoint 0.4 ° C

Date/timePositionNaut miles runAvg speedWind from/ knotsBaromVisibWave heightAir tempDewpointWater temp
2015-Apr-28 00:00N 51°48' W 008°18'0 0.0 1017.7 4.0 0.4
2015-Apr-27 21:00N 51°48' W 008°18'0 0.0 1016.6 4.8 0.1
2015-Apr-27 17:00N 51°48' W 008°18'0 0.0 1014.2 9.0-3.5
2015-Apr-27 14:00N 51°48' W 008°18'0 0.0 1013.8 7.4 2.6
2015-Apr-27 12:00N 51°48' W 008°18'0 0.0 1013.8 7.7 2.1
2015-Apr-27 10:00N 51°48' W 008°18'0 0.0 1014.0 9.2 0.1
2015-Apr-27 07:00N 51°48' W 008°18'0 0.0 1014.7 4.7 0.6
2015-Apr-27 03:00N 51°48' W 008°18'0 0.0 1014.8 3.8-0.1
2015-Apr-26 22:00N 51°48' W 008°18'0 0.0 1015.2 6.4 1.3
2015-Apr-26 20:00N 51°48' W 008°18'0 0.0 1014.3 8.6-0.1
2015-Apr-26 14:00N 51°48' W 008°18'0 0.0 1013.5 12.1-4.9
2015-Apr-26 12:00N 51°48' W 008°18'0 0.0 1013.9 10.6-2.2
2015-Apr-26 09:00N 51°48' W 008°18'0 0.0 1013.9 8.1-1.2
2015-Apr-26 02:00N 51°48' W 008°18'   1011.6 5.3 1.8
2015-Apr-19 16:00N 54°42' W 005°48'7 1.2 1028.0 9.6 4.1
2015-Apr-19 10:00N 54°36' W 005°54'0 0.0 1030.2 8.9 1.3
2015-Apr-19 06:00N 54°36' W 005°54'0 0.0 1030.3 6.3 3.4
2015-Apr-19 05:00N 54°36' W 005°54'0 0.0 1030.3 7.4 3.7
2015-Apr-19 03:00N 54°36' W 005°54'0 0.0 1030.3 7.5 3.8
2015-Apr-18 23:00N 54°36' W 005°54'0 0.0 1031.1 8.7 3.1
2015-Apr-18 21:00N 54°36' W 005°54'0 0.0 1030.9 9.2 4.1
2015-Apr-18 18:00N 54°36' W 005°54'0 0.0 1030.7 10.2 4.2
2015-Apr-18 17:00N 54°36' W 005°54'0 0.0 1030.9 11.6 4.7
2015-Apr-18 16:00N 54°36' W 005°54'0 0.0 1031.1 11.3 2.7
2015-Apr-18 15:00N 54°36' W 005°54'0 0.0 1031.5 9.9 2.5
2015-Apr-18 14:00N 54°36' W 005°54'0 0.0 1031.9 11.3-0.4
2015-Apr-18 12:00N 54°36' W 005°54'0 0.0 1032.3 10.5 0.3
2015-Apr-18 10:00N 54°36' W 005°54'0 0.0 1032.1 9.1 2.8
2015-Apr-18 09:00N 54°36' W 005°54'0 0.0 1032.2 9.1 3.4
2015-Apr-18 06:00N 54°36' W 005°54'0 0.0 1031.7 6.9 4.1
2015-Apr-18 05:00N 54°36' W 005°54'0 0.0 1031.3 6.7 4.1
2015-Apr-18 04:00N 54°36' W 005°54'0 0.0 1031.3 7.0 4.3
2015-Apr-18 02:00N 54°36' W 005°54'0 0.0 1030.8 8.1 3.1
2015-Apr-18 01:00N 54°36' W 005°54'   1030.2 8.6 4.1

Dump ship's entire track history